createdAt,value
2018-01-28T00:02:18.205Z,6.20
2018-01-28T00:04:44.525Z,6.20
2018-01-28T00:07:10.820Z,6.30
2018-01-28T00:09:37.883Z,6.00
2018-01-28T00:12:04.938Z,6.00
2018-01-28T00:14:31.286Z,6.00
2018-01-28T00:16:57.594Z,6.00
2018-01-28T00:19:24.687Z,6.10
2018-01-28T00:21:51.815Z,6.10
2018-01-28T00:24:18.129Z,6.00
2018-01-28T00:26:44.455Z,6.00
2018-01-28T00:29:10.822Z,5.90
2018-01-28T00:31:37.095Z,5.90
2018-01-28T00:34:04.160Z,5.80
2018-01-28T00:36:30.451Z,5.80
2018-01-28T00:38:56.752Z,5.80
2018-01-28T00:41:23.050Z,5.80
2018-01-28T00:43:49.600Z,5.80
2018-01-28T00:46:15.879Z,5.70
2018-01-28T00:48:42.943Z,5.90
2018-01-28T00:51:09.975Z,5.90
2018-01-28T00:53:37.038Z,5.80
2018-01-28T00:56:04.064Z,5.80
2018-01-28T00:58:30.356Z,5.80
2018-01-28T01:00:56.665Z,5.70
2018-01-28T01:03:23.000Z,5.60
2018-01-28T01:05:49.284Z,5.60
2018-01-28T01:08:16.354Z,5.60
2018-01-28T01:10:43.404Z,5.60
2018-01-28T01:13:10.444Z,5.60
2018-01-28T01:15:37.475Z,5.50
2018-01-28T01:18:03.756Z,5.50
2018-01-28T01:20:30.121Z,5.50
2018-01-28T01:22:56.395Z,5.40
2018-01-28T01:25:23.439Z,5.40
2018-01-28T01:27:50.496Z,5.40
2018-01-28T01:30:16.810Z,5.40
2018-01-28T01:32:43.842Z,5.40
2018-01-28T01:35:10.877Z,5.40
2018-01-28T01:37:37.157Z,5.40
2018-01-28T01:40:03.452Z,5.40
2018-01-28T01:42:30.506Z,5.40
2018-01-28T01:44:57.551Z,5.40
2018-01-28T01:47:25.616Z,5.40
2018-01-28T01:49:51.908Z,5.30
2018-01-28T01:52:18.190Z,5.40
2018-01-28T01:54:44.521Z,5.50
2018-01-28T01:57:10.861Z,5.50
2018-01-28T01:59:37.156Z,5.40
2018-01-28T02:02:03.436Z,5.50
2018-01-28T02:04:29.724Z,5.50
2018-01-28T02:06:56.880Z,5.50
2018-01-28T02:09:23.188Z,5.50
2018-01-28T02:11:49.458Z,5.50
2018-01-28T02:14:15.759Z,5.50
2018-01-28T02:16:42.056Z,5.40
2018-01-28T02:19:08.380Z,5.50
2018-01-28T02:21:34.676Z,5.40
2018-01-28T02:24:01.227Z,5.50
2018-01-28T02:26:27.523Z,5.50
2018-01-28T02:28:54.567Z,5.50
2018-01-28T02:31:21.629Z,5.50
2018-01-28T02:33:47.914Z,5.50
2018-01-28T02:36:14.237Z,5.60
2018-01-28T02:38:40.597Z,5.60
2018-01-28T02:41:07.685Z,5.70
2018-01-28T02:43:33.968Z,5.60
2018-01-28T02:46:00.285Z,5.70
2018-01-28T02:48:26.571Z,5.60
2018-01-28T02:50:52.871Z,5.70
2018-01-28T02:53:19.928Z,5.70
2018-01-28T02:55:46.280Z,5.70
2018-01-28T02:58:12.565Z,5.80
2018-01-28T03:00:38.890Z,5.90
2018-01-28T03:03:05.193Z,5.90
2018-01-28T03:05:31.484Z,5.90
2018-01-28T03:07:57.778Z,5.90
2018-01-28T03:10:24.884Z,6.00
2018-01-28T03:12:51.208Z,6.00
2018-01-28T03:15:17.509Z,6.00
2018-01-28T03:17:44.586Z,6.00
2018-01-28T03:20:10.917Z,5.90
2018-01-28T03:22:37.201Z,6.00
2018-01-28T03:25:03.505Z,6.00
2018-01-28T03:27:29.848Z,6.10
2018-01-28T03:29:56.163Z,6.10
2018-01-28T03:32:22.541Z,6.10
2018-01-28T03:34:49.605Z,6.20
2018-01-28T03:37:15.917Z,6.10
2018-01-28T03:39:43.000Z,6.20
2018-01-28T03:42:09.323Z,6.10
2018-01-28T03:44:35.607Z,6.20
2018-01-28T03:47:01.921Z,6.10
2018-01-28T03:49:28.223Z,6.20
2018-01-28T03:51:54.528Z,6.20
2018-01-28T03:54:21.556Z,6.20
2018-01-28T03:56:48.596Z,6.20
2018-01-28T03:59:14.895Z,6.10
2018-01-28T04:01:41.645Z,6.20
2018-01-28T04:04:07.933Z,6.20
2018-01-28T04:06:34.238Z,6.20
2018-01-28T04:09:00.547Z,6.20
2018-01-28T04:11:26.837Z,6.20
2018-01-28T04:13:53.120Z,6.30
2018-01-28T04:16:20.159Z,6.30
2018-01-28T04:18:47.201Z,6.30
2018-01-28T04:21:13.477Z,6.30
2018-01-28T04:23:39.801Z,6.30
2018-01-28T04:26:06.069Z,6.30
2018-01-28T04:28:32.369Z,6.40
2018-01-28T04:30:58.656Z,6.50
2018-01-28T04:33:31.972Z,6.40
2018-01-28T04:35:58.288Z,6.40
2018-01-28T04:38:25.326Z,6.40
2018-01-28T04:40:51.600Z,6.40
2018-01-28T04:43:17.879Z,6.50
2018-01-28T04:45:44.963Z,6.40
2018-01-28T04:48:12.007Z,6.50
2018-01-28T04:50:38.319Z,6.40
2018-01-28T04:53:04.646Z,6.40
2018-01-28T04:55:30.924Z,6.50
2018-01-28T04:57:57.249Z,6.60
2018-01-28T05:00:23.563Z,6.60
2018-01-28T05:02:49.919Z,6.60
2018-01-28T05:05:16.236Z,6.60
2018-01-28T05:07:42.549Z,6.60
2018-01-28T05:10:08.865Z,6.70
2018-01-28T05:12:35.907Z,6.70
2018-01-28T05:15:02.229Z,6.70
2018-01-28T05:17:29.251Z,6.80
2018-01-28T05:19:55.610Z,6.70
2018-01-28T05:22:22.652Z,6.70
2018-01-28T05:24:49.692Z,6.80
2018-01-28T05:27:15.995Z,6.70
2018-01-28T05:29:42.301Z,6.80
2018-01-28T05:32:08.600Z,6.80
2018-01-28T05:34:35.631Z,7.00
2018-01-28T05:37:01.910Z,6.90
2018-01-28T05:39:28.195Z,6.90
2018-01-28T05:41:55.226Z,6.80
2018-01-28T05:44:21.524Z,6.80
2018-01-28T05:46:47.811Z,6.90
2018-01-28T05:49:14.842Z,6.80
2018-01-28T05:51:41.875Z,6.80
2018-01-28T05:54:08.159Z,6.80
2018-01-28T05:56:34.442Z,6.80
2018-01-28T05:59:00.726Z,6.80
2018-01-28T06:01:27.015Z,6.90
2018-01-28T06:03:54.036Z,6.90
2018-01-28T06:06:20.340Z,6.90
2018-01-28T06:08:46.652Z,6.90
2018-01-28T06:11:12.938Z,6.90
2018-01-28T06:13:39.224Z,6.90
2018-01-28T06:16:05.558Z,6.90
2018-01-28T06:18:31.886Z,7.00
2018-01-28T06:20:58.230Z,7.00
2018-01-28T06:23:24.598Z,7.00
2018-01-28T06:25:51.653Z,7.00
2018-01-28T06:28:18.676Z,6.90
2018-01-28T06:30:44.975Z,6.90
2018-01-28T06:33:11.260Z,7.10
2018-01-28T06:35:38.312Z,7.20
2018-01-28T06:38:05.344Z,7.20
2018-01-28T06:40:31.670Z,7.10
2018-01-28T06:42:57.952Z,7.20
2018-01-28T06:45:24.227Z,7.20
2018-01-28T06:47:52.052Z,7.20
2018-01-28T06:50:18.313Z,7.20
2018-01-28T06:52:44.619Z,7.30
2018-01-28T06:55:10.892Z,7.30
2018-01-28T06:57:37.233Z,7.20
2018-01-28T07:00:04.274Z,7.40
2018-01-28T07:02:31.319Z,7.40
2018-01-28T07:04:58.345Z,7.40
2018-01-28T07:07:24.624Z,7.40
2018-01-28T07:09:50.903Z,7.40
2018-01-28T07:12:17.179Z,7.40
2018-01-28T07:14:43.490Z,7.40
2018-01-28T07:17:10.534Z,7.50
2018-01-28T07:19:37.567Z,7.60
2018-01-28T07:22:04.625Z,7.60
2018-01-28T07:24:31.662Z,7.60
2018-01-28T07:26:58.713Z,7.60
2018-01-28T07:29:25.770Z,7.60
2018-01-28T07:31:52.817Z,7.50
2018-01-28T07:34:19.864Z,7.50
2018-01-28T07:36:46.917Z,7.50
2018-01-28T07:39:13.939Z,7.50
2018-01-28T07:41:40.229Z,7.40
2018-01-28T07:44:06.557Z,7.50
2018-01-28T07:46:32.827Z,7.50
2018-01-28T07:48:59.115Z,7.50
2018-01-28T07:51:25.384Z,7.40
2018-01-28T07:53:51.700Z,7.40
2018-01-28T07:56:18.003Z,7.30
2018-01-28T07:58:44.332Z,7.30
2018-01-28T08:01:10.601Z,7.30
2018-01-28T08:03:36.883Z,7.20
2018-01-28T08:06:03.205Z,7.30
2018-01-28T08:08:31.462Z,7.30
2018-01-28T08:11:02.480Z,7.30
2018-01-28T08:13:45.440Z,7.30
2018-01-28T08:16:11.728Z,7.20
2018-01-28T08:18:38.014Z,7.30
2018-01-28T08:21:04.304Z,7.30
2018-01-28T08:23:30.633Z,7.20
2018-01-28T08:25:56.916Z,7.30
2018-01-28T08:28:23.225Z,7.30
2018-01-28T08:30:49.753Z,7.30
2018-01-28T08:33:16.157Z,7.30
2018-01-28T08:35:42.498Z,7.30
2018-01-28T08:38:09.548Z,7.40
2018-01-28T08:40:35.836Z,7.40
2018-01-28T08:43:02.141Z,7.50
2018-01-28T08:45:28.477Z,7.60
2018-01-28T08:47:55.097Z,7.50
2018-01-28T08:50:21.400Z,7.50
2018-01-28T08:52:48.549Z,7.60
2018-01-28T08:55:15.647Z,7.60
2018-01-28T08:57:42.861Z,7.50
2018-01-28T09:00:10.839Z,7.40
2018-01-28T09:02:37.197Z,7.40
2018-01-28T09:05:03.733Z,7.40
2018-01-28T09:07:30.770Z,7.60
2018-01-28T09:09:57.104Z,7.70
2018-01-28T09:12:23.422Z,7.80
2018-01-28T09:14:49.724Z,7.90
2018-01-28T09:17:16.768Z,8.00
2018-01-28T09:19:43.836Z,8.00
2018-01-28T09:22:10.246Z,7.90
2018-01-28T09:24:37.325Z,7.90
2018-01-28T09:27:03.637Z,7.90
2018-01-28T09:29:30.131Z,8.10
2018-01-28T09:31:57.885Z,8.10
2018-01-28T09:34:24.179Z,8.10
2018-01-28T09:36:50.521Z,8.00
2018-01-28T09:39:16.828Z,8.10
2018-01-28T09:41:43.165Z,8.20
2018-01-28T09:44:09.483Z,8.10
2018-01-28T09:46:35.877Z,8.10
2018-01-28T09:49:02.173Z,8.20
2018-01-28T09:51:28.892Z,8.20
2018-01-28T09:53:55.177Z,8.30
2018-01-28T09:56:21.462Z,8.30
2018-01-28T09:58:47.806Z,8.30
2018-01-28T10:01:14.137Z,8.30
2018-01-28T10:03:40.461Z,8.40
2018-01-28T10:06:06.808Z,8.40
2018-01-28T10:08:33.161Z,8.40
2018-01-28T10:11:00.376Z,8.30
2018-01-28T10:13:26.684Z,8.30
2018-01-28T10:15:52.981Z,8.40
2018-01-28T10:18:19.308Z,8.30
2018-01-28T10:20:45.617Z,8.20
2018-01-28T10:23:11.894Z,8.30
2018-01-28T10:25:38.925Z,8.40
2018-01-28T10:28:05.972Z,8.30
2018-01-28T10:30:33.049Z,8.30
2018-01-28T10:32:59.322Z,8.30
2018-01-28T10:35:25.608Z,8.40
2018-01-28T10:37:51.909Z,8.50
2018-01-28T10:40:18.959Z,8.50
2018-01-28T10:42:46.034Z,8.60
2018-01-28T10:45:12.352Z,8.60
2018-01-28T10:47:38.648Z,8.70
2018-01-28T10:50:04.940Z,8.60
2018-01-28T10:52:31.249Z,8.80
2018-01-28T10:54:57.527Z,8.60
2018-01-28T10:57:23.846Z,8.70
2018-01-28T10:59:50.178Z,8.70
2018-01-28T11:02:16.595Z,8.70
2018-01-28T11:04:42.958Z,8.80
2018-01-28T11:07:10.026Z,8.90
2018-01-28T11:09:36.333Z,8.90
2018-01-28T11:12:02.643Z,8.80
2018-01-28T11:14:28.944Z,8.80
2018-01-28T11:16:55.273Z,8.80
2018-01-28T11:19:21.591Z,9.00
2018-01-28T11:21:47.921Z,8.90
2018-01-28T11:24:14.958Z,8.90
2018-01-28T11:26:41.978Z,9.00
2018-01-28T11:29:09.040Z,9.00
2018-01-28T11:31:36.060Z,8.90
2018-01-28T11:34:02.353Z,8.80
2018-01-28T11:36:28.624Z,8.90
2018-01-28T11:38:54.939Z,9.00
2018-01-28T11:41:21.251Z,9.00
2018-01-28T11:43:47.583Z,9.10
2018-01-28T11:46:13.875Z,9.10
2018-01-28T11:48:40.918Z,9.00
2018-01-28T11:51:07.977Z,9.10
2018-01-28T11:53:35.066Z,9.10
2018-01-28T11:56:01.397Z,9.10
2018-01-28T11:58:27.696Z,9.30
2018-01-28T12:00:53.981Z,9.20
2018-01-28T12:03:20.260Z,9.20
2018-01-28T12:05:46.551Z,9.30
2018-01-28T12:08:12.837Z,9.20
2018-01-28T12:10:39.120Z,9.30
2018-01-28T12:13:06.146Z,9.30
2018-01-28T12:15:32.526Z,9.30
2018-01-28T12:17:58.809Z,9.40
2018-01-28T12:20:25.092Z,9.40
2018-01-28T12:22:51.438Z,9.50
2018-01-28T12:25:17.799Z,9.50
2018-01-28T12:27:44.092Z,9.40
2018-01-28T12:30:10.402Z,9.40
2018-01-28T12:32:36.708Z,9.30
2018-01-28T12:35:03.766Z,9.30
2018-01-28T12:37:30.796Z,9.30
2018-01-28T12:39:57.905Z,9.30
2018-01-28T12:42:24.210Z,9.30
2018-01-28T12:44:50.526Z,9.30
2018-01-28T12:47:17.925Z,9.30
2018-01-28T12:49:44.295Z,9.20
2018-01-28T12:52:11.364Z,9.30
2018-01-28T12:54:37.667Z,9.20
2018-01-28T12:57:04.696Z,9.30
2018-01-28T12:59:30.985Z,9.30
2018-01-28T13:01:57.314Z,9.20
2018-01-28T13:04:23.671Z,9.20
2018-01-28T13:06:49.994Z,9.20
2018-01-28T13:09:16.278Z,9.10
2018-01-28T13:11:42.652Z,9.10
2018-01-28T13:14:08.971Z,9.00
2018-01-28T13:16:35.272Z,9.00
2018-01-28T13:19:02.357Z,9.10
2018-01-28T13:21:28.669Z,9.10
2018-01-28T13:23:54.959Z,9.10
2018-01-28T13:26:22.053Z,8.90
2018-01-28T13:28:48.402Z,8.90
2018-01-28T13:31:14.744Z,9.00
2018-01-28T13:33:41.112Z,9.00
2018-01-28T13:36:08.161Z,9.10
2018-01-28T13:38:34.449Z,9.10
2018-01-28T13:41:00.825Z,9.10
2018-01-28T13:43:27.915Z,9.10
2018-01-28T13:45:54.186Z,9.10
2018-01-28T13:48:20.486Z,9.10
2018-01-28T13:50:46.839Z,9.10
2018-01-28T13:53:13.270Z,9.10
2018-01-28T13:55:39.728Z,9.10
2018-01-28T13:58:06.122Z,9.10
2018-01-28T14:00:33.243Z,9.10
2018-01-28T14:02:59.616Z,9.00
2018-01-28T14:05:26.660Z,9.10
2018-01-28T14:07:52.953Z,9.10
2018-01-28T14:10:19.231Z,9.20
2018-01-28T14:12:46.348Z,9.10
2018-01-28T14:15:12.683Z,9.10
2018-01-28T14:17:39.045Z,9.10
2018-01-28T14:20:06.122Z,9.10
2018-01-28T14:22:32.455Z,9.10
2018-01-28T14:24:58.804Z,9.10
2018-01-28T14:27:25.192Z,9.10
2018-01-28T14:29:52.254Z,9.00
2018-01-28T14:32:19.383Z,9.10
2018-01-28T14:34:46.472Z,9.00
2018-01-28T14:37:12.784Z,9.00
2018-01-28T14:39:39.138Z,9.20
2018-01-28T14:42:05.585Z,9.20
2018-01-28T14:44:31.887Z,9.10
2018-01-28T14:46:58.228Z,9.00
2018-01-28T14:49:24.594Z,9.00
2018-01-28T14:51:50.979Z,8.90
2018-01-28T14:54:17.367Z,9.00
2018-01-28T14:56:44.477Z,8.90
2018-01-28T14:59:10.829Z,8.90
2018-01-28T15:01:37.940Z,8.90
2018-01-28T15:04:04.307Z,8.90
2018-01-28T15:06:30.608Z,8.90
2018-01-28T15:08:57.451Z,8.90
2018-01-28T15:11:23.958Z,9.00
2018-01-28T15:13:50.986Z,8.90
2018-01-28T15:16:18.072Z,8.80
2018-01-28T15:18:44.507Z,8.70
2018-01-28T15:21:10.784Z,8.90
2018-01-28T15:23:37.123Z,8.80
2018-01-28T15:26:04.189Z,8.80
2018-01-28T15:28:31.214Z,8.80
2018-01-28T15:30:58.306Z,8.80
2018-01-28T15:33:24.613Z,8.70
2018-01-28T15:35:51.700Z,8.80
2018-01-28T15:38:18.039Z,8.80
2018-01-28T15:40:44.342Z,8.80
2018-01-28T15:43:10.695Z,8.70
2018-01-28T15:45:37.004Z,8.80
2018-01-28T15:48:03.358Z,8.80
2018-01-28T15:50:29.661Z,8.70
2018-01-28T15:52:55.951Z,8.60
2018-01-28T15:55:22.308Z,8.60
2018-01-28T15:57:49.359Z,8.50
2018-01-28T16:00:15.691Z,8.40
2018-01-28T16:02:42.012Z,8.60
2018-01-28T16:05:09.133Z,8.50
2018-01-28T16:07:35.481Z,8.50
2018-01-28T16:10:02.565Z,8.40
2018-01-28T16:12:28.840Z,8.30
2018-01-28T16:14:55.128Z,8.30
2018-01-28T16:17:21.462Z,8.20
2018-01-28T16:19:47.766Z,8.30
2018-01-28T16:22:14.793Z,8.30
2018-01-28T16:24:41.893Z,8.20
2018-01-28T16:27:08.244Z,8.20
2018-01-28T16:29:34.607Z,8.30
2018-01-28T16:32:01.666Z,8.10
2018-01-28T16:34:28.718Z,8.00
2018-01-28T16:36:55.008Z,8.00
2018-01-28T16:39:21.772Z,8.00
2018-01-28T16:41:48.958Z,8.00
2018-01-28T16:44:15.278Z,7.90
2018-01-28T16:46:41.616Z,8.10
2018-01-28T16:49:07.962Z,8.10
2018-01-28T16:51:34.303Z,8.10
2018-01-28T16:54:00.642Z,8.20
2018-01-28T16:56:26.988Z,8.10
2018-01-28T16:58:53.290Z,8.10
2018-01-28T17:01:19.673Z,8.00
2018-01-28T17:03:45.984Z,8.00
2018-01-28T17:06:12.301Z,8.00
2018-01-28T17:08:38.589Z,7.90
2018-01-28T17:11:04.957Z,8.00
2018-01-28T17:13:31.276Z,8.00
2018-01-28T17:15:57.588Z,7.90
2018-01-28T17:18:24.007Z,7.90
2018-01-28T17:20:50.513Z,7.90
2018-01-28T17:23:16.870Z,7.80
2018-01-28T17:25:43.205Z,7.90
2018-01-28T17:28:09.513Z,7.80
2018-01-28T17:30:35.907Z,7.80
2018-01-28T17:33:02.237Z,7.90
2018-01-28T17:35:34.874Z,7.80
2018-01-28T17:38:01.244Z,7.80
2018-01-28T17:40:27.645Z,7.80
2018-01-28T17:42:53.959Z,7.80
2018-01-28T17:45:20.352Z,7.80
2018-01-28T17:47:46.685Z,7.90
2018-01-28T17:50:13.733Z,7.80
2018-01-28T17:52:40.129Z,7.70
2018-01-28T17:55:06.493Z,7.80
2018-01-28T17:57:33.577Z,7.70
2018-01-28T17:59:59.913Z,7.70
2018-01-28T18:02:26.217Z,7.90
2018-01-28T18:04:52.571Z,7.90
2018-01-28T18:07:18.934Z,7.70
2018-01-28T18:09:45.283Z,7.70
2018-01-28T18:12:13.055Z,7.70
2018-01-28T18:14:40.108Z,7.80
2018-01-28T18:17:06.553Z,7.70
2018-01-28T18:19:32.873Z,7.80
2018-01-28T18:21:59.196Z,7.80
2018-01-28T18:24:25.521Z,7.80
2018-01-28T18:26:51.815Z,7.80
2018-01-28T18:29:18.183Z,7.90
2018-01-28T18:31:45.282Z,7.80
2018-01-28T18:34:11.586Z,7.80
2018-01-28T18:36:37.938Z,7.80
2018-01-28T18:39:04.311Z,7.80
2018-01-28T18:41:30.664Z,7.90
2018-01-28T18:43:57.794Z,7.90
2018-01-28T18:46:24.133Z,7.90
2018-01-28T18:48:50.524Z,7.90
2018-01-28T18:51:16.881Z,7.90
2018-01-28T18:53:43.338Z,8.00
2018-01-28T18:56:09.714Z,8.00
2018-01-28T18:58:36.078Z,8.00
2018-01-28T19:01:02.454Z,8.20
2018-01-28T19:03:28.914Z,8.00
2018-01-28T19:05:55.241Z,8.00
2018-01-28T19:08:21.568Z,8.10
2018-01-28T19:10:47.951Z,8.10
2018-01-28T19:13:14.316Z,8.20
2018-01-28T19:15:40.800Z,8.10
2018-01-28T19:18:07.166Z,8.20
2018-01-28T19:20:34.188Z,8.20
2018-01-28T19:23:00.609Z,8.20
2018-01-28T19:25:26.913Z,8.20
2018-01-28T19:27:53.247Z,8.30
2018-01-28T19:30:19.587Z,8.30
2018-01-28T19:32:45.915Z,8.30
2018-01-28T19:35:12.290Z,8.30
2018-01-28T19:37:39.335Z,8.40
2018-01-28T19:40:06.451Z,8.40
2018-01-28T19:42:32.811Z,8.40
2018-01-28T19:44:59.835Z,8.50
2018-01-28T19:47:26.671Z,8.40
2018-01-28T19:49:53.073Z,8.50
2018-01-28T19:52:19.449Z,8.50
2018-01-28T19:54:45.967Z,8.50
2018-01-28T19:57:12.339Z,8.60
2018-01-28T19:59:41.077Z,8.60
2018-01-28T20:02:07.449Z,8.70
2018-01-28T20:04:34.555Z,8.80
2018-01-28T20:07:00.916Z,8.70
2018-01-28T20:09:28.735Z,8.80
2018-01-28T20:11:55.072Z,8.80
2018-01-28T20:14:21.451Z,8.90
2018-01-28T20:16:47.791Z,8.90
2018-01-28T20:19:15.052Z,9.00
2018-01-28T20:21:42.191Z,8.90
2018-01-28T20:24:09.283Z,9.00
2018-01-28T20:26:35.645Z,9.00
2018-01-28T20:29:01.967Z,9.00
2018-01-28T20:31:28.433Z,9.00
2018-01-28T20:33:55.464Z,9.10
2018-01-28T20:36:21.838Z,9.00
2018-01-28T20:38:48.188Z,9.10
2018-01-28T20:41:14.532Z,9.10
2018-01-28T20:43:40.807Z,9.10
2018-01-28T20:46:07.871Z,9.10
2018-01-28T20:48:34.966Z,9.10
2018-01-28T20:51:01.333Z,9.10
2018-01-28T20:53:27.664Z,9.20
2018-01-28T20:55:54.298Z,9.20
2018-01-28T20:58:22.212Z,9.20
2018-01-28T21:00:48.903Z,9.10
2018-01-28T21:03:16.013Z,9.20
2018-01-28T21:05:42.371Z,9.10
2018-01-28T21:08:08.717Z,9.20
2018-01-28T21:10:35.045Z,9.30
2018-01-28T21:13:01.381Z,9.20
2018-01-28T21:15:28.482Z,9.30
2018-01-28T21:17:54.872Z,9.20
2018-01-28T21:20:21.965Z,9.30
2018-01-28T21:22:48.327Z,9.20
2018-01-28T21:25:14.652Z,9.30
2018-01-28T21:27:41.004Z,9.30
2018-01-28T21:30:08.093Z,9.30
2018-01-28T21:32:34.448Z,9.30
2018-01-28T21:35:00.787Z,9.40
2018-01-28T21:37:27.064Z,9.50
2018-01-28T21:39:53.390Z,9.40
2018-01-28T21:42:20.450Z,9.40
2018-01-28T21:44:48.293Z,9.40
2018-01-28T21:47:15.381Z,9.50
2018-01-28T21:49:41.733Z,9.40
2018-01-28T21:52:08.077Z,9.50
2018-01-28T21:54:34.488Z,9.50
2018-01-28T21:57:00.826Z,9.50
2018-01-28T21:59:27.207Z,9.50
2018-01-28T22:01:54.284Z,9.60
2018-01-28T22:04:20.650Z,9.50
2018-01-28T22:06:47.022Z,9.60
2018-01-28T22:09:16.318Z,9.60
2018-01-28T22:11:43.366Z,9.60
2018-01-28T22:14:09.725Z,9.60
2018-01-28T22:16:36.095Z,9.60
2018-01-28T22:19:02.467Z,9.60
2018-01-28T22:21:28.814Z,9.60
2018-01-28T22:23:55.150Z,9.60
2018-01-28T22:26:21.445Z,9.60
2018-01-28T22:28:48.523Z,9.70
2018-01-28T22:31:14.869Z,9.60
2018-01-28T22:33:41.200Z,9.70
2018-01-28T22:36:07.493Z,9.80
2018-01-28T22:38:33.856Z,9.80
2018-01-28T22:41:00.307Z,9.80
2018-01-28T22:43:26.668Z,9.80
2018-01-28T22:45:53.776Z,9.90
2018-01-28T22:48:20.211Z,9.80
2018-01-28T22:50:46.562Z,9.90
2018-01-28T22:53:12.895Z,9.90
2018-01-28T22:55:39.244Z,9.90
2018-01-28T22:58:06.263Z,9.90
2018-01-28T23:00:32.572Z,9.90
2018-01-28T23:02:58.918Z,10.00
2018-01-28T23:05:25.249Z,10.00
2018-01-28T23:07:51.583Z,10.00
2018-01-28T23:10:17.867Z,10.00
2018-01-28T23:12:44.214Z,10.00
2018-01-28T23:15:10.505Z,10.00
2018-01-28T23:17:36.867Z,10.10
2018-01-28T23:20:03.220Z,10.10
2018-01-28T23:22:29.575Z,10.10
2018-01-28T23:24:55.898Z,10.10
2018-01-28T23:27:22.200Z,10.10
2018-01-28T23:29:48.517Z,10.10
2018-01-28T23:32:14.833Z,10.10
2018-01-28T23:34:41.116Z,10.10
2018-01-28T23:37:07.437Z,10.10
2018-01-28T23:39:33.755Z,10.20
2018-01-28T23:42:00.092Z,10.20
2018-01-28T23:44:26.380Z,10.20
2018-01-28T23:46:52.707Z,10.30
2018-01-28T23:49:19.011Z,10.20
2018-01-28T23:51:45.324Z,10.20
2018-01-28T23:54:11.618Z,10.20
2018-01-28T23:56:37.918Z,10.20
2018-01-28T23:59:04.971Z,10.20
